ADDS METAR Data INFO
IDs: Format: Raw Decoded Include TAF

Data at: 1115 UTC 21 Feb 2018

KCKV 201452Z AUTO 19018G23KT 10SM CLR 21/12 A3017 RMK AO2 PK WND 18027/1358 SLP212 T02110122 51009
KCKV 201352Z AUTO 18012G24KT 10SM CLR 20/12 A3017 RMK AO2 SLP212 T02000122
KCKV 201252Z AUTO 18011KT 10SM CLR 19/11 A3016 RMK AO2 SLP208 T01890111 $
KCKV 201152Z AUTO 19012KT 10SM CLR 19/12 A3014 RMK AO2 SLP204 T01890117 10217 20189 51013 $
KCKV 201052Z AUTO 19014G25KT 10SM CLR 19/13 A3013 RMK AO2 PK WND 20029/0959 SLP199 T01940128 $
KCKV 200952Z AUTO 19017G27KT 10SM CLR 20/13 A3012 RMK AO2 PK WND 19028/0939 SLP195 T02000133 $
KCKV 200852Z AUTO 20017G29KT 10SM CLR 21/14 A3011 RMK AO2 PK WND 20029/0847 SLP190 T02060139 58001 $
KCKV 200752Z AUTO 18015G24KT 10SM CLR 20/13 A3011 RMK AO2 SLP192 T02000133 $
KCKV 200652Z AUTO 18015KT 10SM CLR 21/13 A3012 RMK AO2 SLP193 T02060133 $
KCKV 200552Z AUTO 18014G24KT 10SM CLR 21/13 A3011 RMK AO2 SLP192 T02060133 10206 20194 402440133 53006 $
KCKV 200452Z AUTO 18008KT 10SM CLR 20/13 A3010 RMK AO2 SLP190 T02000133 $
KCKV 200352Z AUTO 18012G17KT 10SM CLR 19/13 A3009 RMK AO2 SLP186 T01940133 $
KCKV 200252Z AUTO 17008KT 10SM CLR 19/13 A3009 RMK AO2 SLP186 T01940133 58001 $
KCKV 200152Z AUTO 17008KT 10SM CLR 19/13 A3009 RMK AO2 SLP187 T01940128 $
KCKV 200052Z AUTO 17007KT 10SM CLR 20/12 A3010 RMK AO2 SLP189 T02000122 $
KCKV 192352Z AUTO 17007KT 10SM CLR 21/12 A3010 RMK AO2 SLP189 T02060122 10244 20206 53011 $